Time;durP1;ratioP1;P1;durP2;ratioP2;P2;SDS_P1;SDS_P2;PMS_P1;PMS_P2;Temp;Humidity;BMP_temperature;BMP_pressure;BME280_temperature;BME280_humidity;BME280_pressure;Samples;Min_cycle;Max_cycle;Signal;HPM_P1;HPM_P2
2023/01/07 00:01:29;;;;;;;4.70;1.80;;;18.40;71.20;;;;;;4414608;32;20185;-67
2023/01/07 00:03:58;;;;;;;3.92;1.70;;;18.40;71.10;;;;;;4418291;32;20120;-66
2023/01/07 00:06:25;;;;;;;2.53;1.45;;;18.40;71.10;;;;;;4417967;32;20130;-66
2023/01/07 00:08:53;;;;;;;5.05;1.30;;;18.40;71.20;;;;;;4417151;32;20087;-67
2023/01/07 00:11:28;;;;;;;3.55;1.75;;;18.30;71.10;;;;;;4415329;32;20085;-66
2023/01/07 00:13:55;;;;;;;3.40;1.60;;;18.40;71.10;;;;;;4417624;32;20201;-66
2023/01/07 00:16:25;;;;;;;4.00;1.50;;;18.30;71.00;;;;;;4400829;32;20078;-67
2023/01/07 00:18:52;;;;;;;3.03;1.50;;;18.30;71.00;;;;;;4413761;32;20590;-68
2023/01/07 00:21:19;;;;;;;4.30;1.60;;;18.30;71.10;;;;;;4415583;32;20382;-66
2023/01/07 00:23:46;;;;;;;5.35;1.77;;;18.30;71.00;;;;;;4424113;32;20071;-66
2023/01/07 00:26:17;;;;;;;4.15;1.80;;;18.30;71.00;;;;;;4429675;32;20551;-66
2023/01/07 00:28:45;;;;;;;4.95;1.83;;;18.30;71.00;;;;;;4429687;32;20503;-66
2023/01/07 00:31:22;;;;;;;5.20;1.50;;;18.30;71.10;;;;;;4429670;32;20088;-66
2023/01/07 00:36:33;;;;;;;4.15;1.67;;;18.30;71.00;;;;;;4429755;32;20089;-66
2023/01/07 00:39:01;;;;;;;2.88;1.33;;;18.30;70.90;;;;;;4430092;32;20223;-66
2023/01/07 00:41:27;;;;;;;3.85;1.80;;;18.30;71.00;;;;;;4429584;32;20078;-70
2023/01/07 00:43:53;;;;;;;3.78;1.60;;;18.20;70.90;;;;;;4429793;32;20066;-66
2023/01/07 00:46:20;;;;;;;5.22;1.88;;;18.20;71.00;;;;;;4429530;32;20228;-66
2023/01/07 00:48:46;;;;;;;3.80;1.45;;;18.20;70.90;;;;;;4429430;32;20279;-66
2023/01/07 00:51:15;;;;;;;2.88;1.45;;;18.20;70.80;;;;;;4429636;32;20470;-66
2023/01/07 00:53:41;;;;;;;5.55;1.48;;;18.20;70.80;;;;;;4429384;32;20070;-67
2023/01/07 00:56:10;;;;;;;3.38;1.42;;;18.20;70.90;;;;;;4429585;32;20086;-66
2023/01/07 00:58:36;;;;;;;3.67;1.70;;;18.20;70.80;;;;;;4428135;32;20292;-66
2023/01/07 01:01:03;;;;;;;5.13;1.88;;;18.20;70.80;;;;;;4419734;32;21048;-69
2023/01/07 01:03:29;;;;;;;5.22;1.70;;;18.20;70.80;;;;;;4402110;32;20509;-66
2023/01/07 01:06:01;;;;;;;4.95;1.90;;;18.20;71.80;;;;;;4415051;32;20535;-66
2023/01/07 01:08:27;;;;;;;3.55;1.40;;;18.20;70.90;;;;;;4414001;32;20079;-66
2023/01/07 01:10:53;;;;;;;4.38;1.92;;;18.20;70.90;;;;;;4428253;32;20500;-66
2023/01/07 01:13:19;;;;;;;3.20;1.55;;;18.10;70.90;;;;;;4425813;32;20563;-66
2023/01/07 01:15:47;;;;;;;4.00;1.40;;;18.10;70.90;;;;;;4401042;32;20137;-66
2023/01/07 01:18:14;;;;;;;3.35;1.38;;;18.10;70.90;;;;;;4413250;32;20090;-66
2023/01/07 01:20:41;;;;;;;2.50;1.27;;;18.10;70.90;;;;;;4413629;32;20078;-66
2023/01/07 01:23:07;;;;;;;3.67;1.40;;;18.10;70.90;;;;;;4415714;32;20616;-66
2023/01/07 01:25:33;;;;;;;2.92;1.60;;;18.10;70.90;;;;;;4414376;32;20127;-67
2023/01/07 01:28:04;;;;;;;3.35;1.63;;;18.10;70.90;;;;;;4415290;32;20097;-66
2023/01/07 01:30:29;;;;;;;5.07;1.60;;;18.10;70.90;;;;;;4415693;32;20094;-66
2023/01/07 01:32:55;;;;;;;3.10;1.45;;;18.10;70.90;;;;;;4414518;32;20079;-66
2023/01/07 01:35:21;;;;;;;3.03;1.10;;;18.10;70.80;;;;;;4416780;32;20161;-66
2023/01/07 01:37:47;;;;;;;2.50;1.20;;;18.00;70.80;;;;;;4416482;32;20229;-66
2023/01/07 01:40:13;;;;;;;3.13;1.35;;;18.00;70.80;;;;;;4415027;32;20130;-67
2023/01/07 01:42:39;;;;;;;2.67;1.40;;;18.00;70.80;;;;;;4416951;32;20087;-66
2023/01/07 01:45:06;;;;;;;3.28;1.35;;;18.00;70.80;;;;;;4425802;32;20078;-66
2023/01/07 01:47:41;;;;;;;1.98;1.02;;;18.00;70.80;;;;;;4429007;32;20062;-66
2023/01/07 01:50:25;;;;;;;4.10;1.42;;;18.00;70.80;;;;;;4428992;32;20173;-66
2023/01/07 01:52:56;;;;;;;2.80;1.20;;;18.00;70.80;;;;;;4429127;32;20078;-66
2023/01/07 01:55:38;;;;;;;3.47;1.40;;;18.00;70.80;;;;;;4428730;32;20551;-66
2023/01/07 01:58:19;;;;;;;3.88;1.25;;;18.00;70.80;;;;;;4428826;32;20110;-66
2023/01/07 02:00:45;;;;;;;2.88;1.30;;;18.00;70.90;;;;;;4440813;32;20102;-66
2023/01/07 02:03:17;;;;;;;2.80;1.75;;;18.00;70.90;;;;;;4442577;32;20070;-66
2023/01/07 02:05:43;;;;;;;2.95;1.02;;;18.00;70.90;;;;;;4439336;32;20491;-66
2023/01/07 02:08:09;;;;;;;2.58;1.30;;;18.00;70.90;;;;;;4428854;32;20413;-66
2023/01/07 02:10:37;;;;;;;2.67;1.23;;;17.90;70.80;;;;;;4443565;32;20496;-66
2023/01/07 02:13:24;;;;;;;3.20;1.20;;;17.90;70.90;;;;;;4445812;32;20078;-66
2023/01/07 02:16:22;;;;;;;2.90;1.23;;;17.90;70.80;;;;;;4443456;32;20082;-66
2023/01/07 02:19:08;;;;;;;3.00;1.20;;;17.90;70.90;;;;;;4443956;32;20599;-66
2023/01/07 02:21:56;;;;;;;2.75;1.40;;;17.90;70.80;;;;;;4431181;32;20114;-66
2023/01/07 02:24:41;;;;;;;1.80;0.90;;;17.90;70.80;;;;;;4443509;32;20082;-66
2023/01/07 02:27:29;;;;;;;3.25;1.35;;;17.90;70.80;;;;;;4444794;32;20212;-66
2023/01/07 02:30:14;;;;;;;2.42;1.10;;;17.90;70.80;;;;;;4418648;32;20063;-66
2023/01/07 02:33:07;;;;;;;3.17;1.15;;;17.90;70.90;;;;;;4431785;32;20578;-66
2023/01/07 02:35:52;;;;;;;2.28;1.00;;;17.90;70.80;;;;;;4431779;32;20118;-66
2023/01/07 02:38:42;;;;;;;1.92;1.00;;;17.90;70.80;;;;;;4431284;32;20067;-66
2023/01/07 02:41:45;;;;;;;2.75;1.15;;;17.90;70.80;;;;;;4431675;32;20495;-66
2023/01/07 02:44:36;;;;;;;2.55;1.02;;;17.90;70.80;;;;;;4431480;32;20381;-66
2023/01/07 02:47:06;;;;;;;2.08;1.10;;;17.80;70.80;;;;;;4430851;32;20420;-66
2023/01/07 02:49:33;;;;;;;3.13;1.35;;;17.80;70.80;;;;;;4424294;32;20083;-66
2023/01/07 02:52:17;;;;;;;1.88;0.98;;;17.80;70.90;;;;;;4420549;32;20277;-66
2023/01/07 02:54:47;;;;;;;2.15;1.17;;;17.80;70.80;;;;;;4419553;32;20416;-66
2023/01/07 02:57:41;;;;;;;2.60;0.90;;;17.80;70.90;;;;;;4417542;32;20157;-67
2023/01/07 03:00:25;;;;;;;2.00;1.13;;;17.80;70.80;;;;;;4421518;32;20232;-66
2023/01/07 03:03:09;;;;;;;3.95;1.48;;;17.80;71.00;;;;;;4423723;32;20085;-66
2023/01/07 03:05:35;;;;;;;1.98;1.00;;;17.80;70.90;;;;;;4424688;32;20142;-67
2023/01/07 03:08:20;;;;;;;2.75;0.93;;;17.80;71.00;;;;;;4416307;32;20390;-66
2023/01/07 03:10:58;;;;;;;2.15;0.98;;;17.80;70.90;;;;;;4428767;32;20152;-66
2023/01/07 03:13:53;;;;;;;2.08;1.05;;;17.80;70.90;;;;;;4431025;32;20090;-66
2023/01/07 03:16:37;;;;;;;1.58;0.88;;;17.70;70.80;;;;;;4430763;32;20094;-66
2023/01/07 03:19:23;;;;;;;1.52;0.77;;;17.70;70.80;;;;;;4430868;32;20385;-66
2023/01/07 03:21:58;;;;;;;2.65;1.02;;;17.70;70.90;;;;;;4430339;32;20102;-66
2023/01/07 03:24:26;;;;;;;1.67;0.93;;;17.70;70.90;;;;;;4430601;32;20224;-66
2023/01/07 03:26:56;;;;;;;1.58;0.80;;;17.70;70.90;;;;;;4430319;32;20070;-66
2023/01/07 03:29:22;;;;;;;2.92;1.02;;;17.70;70.90;;;;;;4430570;32;20086;-66
2023/01/07 03:31:58;;;;;;;1.60;0.90;;;17.70;70.90;;;;;;4430672;32;20089;-66
2023/01/07 03:34:25;;;;;;;1.92;0.95;;;17.70;70.80;;;;;;4430901;32;20070;-66
2023/01/07 03:36:56;;;;;;;2.45;1.13;;;17.70;70.90;;;;;;4430562;32;20066;-66
2023/01/07 03:39:25;;;;;;;2.25;1.10;;;17.70;70.90;;;;;;4430901;32;20416;-66
2023/01/07 03:44:36;;;;;;;2.30;0.90;;;17.70;70.90;;;;;;4429097;32;20071;-66
2023/01/07 03:47:03;;;;;;;1.17;0.77;;;17.70;70.90;;;;;;4430325;32;20076;-66
2023/01/07 03:49:31;;;;;;;2.40;1.00;;;17.70;70.90;;;;;;4430381;32;20114;-66
2023/01/07 03:51:57;;;;;;;1.65;0.88;;;17.70;70.90;;;;;;4416737;32;20118;-66
2023/01/07 03:54:23;;;;;;;2.42;0.80;;;17.70;70.90;;;;;;4430533;32;20412;-66
2023/01/07 03:56:48;;;;;;;2.22;0.90;;;17.60;70.80;;;;;;4429958;32;20073;-66
2023/01/07 03:59:14;;;;;;;1.48;0.90;;;17.60;70.80;;;;;;4430495;32;20492;-66
2023/01/07 04:01:40;;;;;;;1.40;0.93;;;17.60;70.80;;;;;;4430332;32;20073;-66
2023/01/07 04:04:07;;;;;;;1.77;0.90;;;17.60;70.80;;;;;;4430098;32;20071;-66
2023/01/07 04:06:38;;;;;;;2.67;1.10;;;17.60;70.80;;;;;;4430474;32;20397;-66
2023/01/07 04:09:04;;;;;;;2.85;1.10;;;17.60;70.80;;;;;;4430065;32;20102;-66
2023/01/07 04:11:30;;;;;;;1.85;0.80;;;17.60;70.80;;;;;;4430339;32;20212;-66
2023/01/07 04:13:59;;;;;;;1.65;0.77;;;17.60;70.80;;;;;;4429980;32;20244;-66
2023/01/07 04:16:26;;;;;;;1.27;0.82;;;17.70;70.90;;;;;;4430272;32;20639;-66
2023/01/07 04:18:52;;;;;;;1.85;0.98;;;17.70;70.90;;;;;;4429877;32;20121;-66
2023/01/07 04:21:21;;;;;;;1.63;0.70;;;17.60;70.80;;;;;;4430205;32;20074;-66
2023/01/07 04:23:47;;;;;;;1.58;0.90;;;17.60;70.80;;;;;;4430102;32;20062;-66
2023/01/07 04:26:13;;;;;;;1.55;0.77;;;17.60;70.80;;;;;;4429884;32;20147;-66
2023/01/07 04:28:39;;;;;;;1.70;0.90;;;17.60;70.80;;;;;;4429812;32;20078;-66
2023/01/07 04:31:05;;;;;;;2.25;1.13;;;17.60;70.80;;;;;;4429824;32;20426;-66
2023/01/07 04:33:30;;;;;;;2.00;0.80;;;17.60;70.80;;;;;;4429977;32;20079;-66
2023/01/07 04:35:56;;;;;;;0.93;0.73;;;17.60;70.80;;;;;;4430004;32;20583;-66
2023/01/07 04:38:22;;;;;;;0.95;0.73;;;17.60;70.90;;;;;;4429679;32;20076;-66
2023/01/07 04:40:49;;;;;;;1.10;0.60;;;17.60;70.80;;;;;;4429833;32;20297;-66
2023/01/07 04:43:15;;;;;;;1.90;0.80;;;17.60;70.80;;;;;;4429783;32;20121;-66
2023/01/07 04:45:40;;;;;;;3.13;1.02;;;17.60;70.80;;;;;;4429908;32;20232;-66
2023/01/07 04:48:07;;;;;;;1.70;0.70;;;17.60;70.80;;;;;;4429574;32;20124;-66
2023/01/07 04:50:32;;;;;;;0.80;0.70;;;17.60;70.80;;;;;;4429511;32;20420;-66
2023/01/07 04:52:59;;;;;;;0.90;0.70;;;17.60;70.80;;;;;;4429487;32;20178;-66
2023/01/07 04:55:25;;;;;;;1.65;1.08;;;17.50;70.80;;;;;;4429479;32;20504;-66
2023/01/07 04:57:51;;;;;;;1.20;0.80;;;17.60;70.80;;;;;;4429385;32;20598;-66
2023/01/07 05:00:17;;;;;;;2.03;1.02;;;17.50;70.80;;;;;;4429558;32;20078;-66
2023/01/07 05:02:43;;;;;;;1.17;0.82;;;17.50;70.70;;;;;;4429447;32;20504;-66
2023/01/07 05:05:09;;;;;;;1.35;0.70;;;17.50;70.70;;;;;;4429312;32;20132;-66
2023/01/07 05:07:39;;;;;;;1.33;0.60;;;17.50;70.70;;;;;;4429465;32;20176;-66
2023/01/07 05:10:05;;;;;;;1.85;0.93;;;17.50;70.80;;;;;;4429448;32;20090;-66
2023/01/07 05:12:35;;;;;;;1.33;0.65;;;17.50;70.70;;;;;;4429653;32;20081;-66
2023/01/07 05:15:05;;;;;;;1.50;0.88;;;17.50;70.80;;;;;;4429406;32;20074;-66
2023/01/07 05:17:31;;;;;;;2.17;0.93;;;17.50;70.80;;;;;;4429153;32;20075;-66
2023/01/07 05:19:57;;;;;;;1.38;0.80;;;17.50;70.70;;;;;;4429467;32;20102;-66
2023/01/07 05:22:24;;;;;;;1.13;0.70;;;17.50;70.70;;;;;;4429143;32;20098;-66
2023/01/07 05:24:50;;;;;;;1.40;0.70;;;17.50;70.70;;;;;;4429269;32;20161;-66
2023/01/07 05:27:16;;;;;;;1.02;0.70;;;17.50;70.70;;;;;;4428843;32;20134;-66
2023/01/07 05:29:42;;;;;;;1.23;0.70;;;17.50;70.70;;;;;;4429237;32;20070;-66
2023/01/07 05:32:13;;;;;;;1.05;0.82;;;17.50;70.80;;;;;;4429166;32;20082;-66
2023/01/07 05:34:39;;;;;;;1.30;0.82;;;17.50;70.70;;;;;;4429410;32;20559;-66
2023/01/07 05:37:05;;;;;;;1.13;0.80;;;17.50;70.70;;;;;;4429196;32;20256;-66
2023/01/07 05:39:31;;;;;;;1.00;0.70;;;17.50;70.70;;;;;;4429011;32;20168;-66
2023/01/07 05:41:58;;;;;;;2.38;0.90;;;17.50;70.80;;;;;;4429204;32;20095;-66
2023/01/07 05:44:24;;;;;;;2.40;0.70;;;17.50;70.70;;;;;;4430569;32;20402;-66
2023/01/07 05:46:50;;;;;;;1.67;1.00;;;17.50;70.80;;;;;;4432406;32;20093;-66
2023/01/07 05:49:16;;;;;;;0.90;0.80;;;17.50;70.70;;;;;;4432203;32;20114;-66
2023/01/07 05:51:42;;;;;;;1.30;0.60;;;17.50;70.70;;;;;;4418255;32;20232;-66
2023/01/07 05:54:08;;;;;;;0.95;0.50;;;17.40;70.60;;;;;;4418622;32;20078;-66
2023/01/07 05:56:34;;;;;;;1.15;0.70;;;17.40;70.70;;;;;;4432044;32;20087;-66
2023/01/07 05:59:00;;;;;;;2.15;0.82;;;17.40;70.60;;;;;;4431833;32;20113;-66
2023/01/07 06:01:26;;;;;;;0.85;0.60;;;17.40;70.60;;;;;;4433314;32;20074;-66
2023/01/07 06:03:52;;;;;;;1.08;0.60;;;17.40;70.60;;;;;;4431916;32;20068;-66
2023/01/07 06:06:18;;;;;;;0.88;0.50;;;17.40;70.60;;;;;;4432077;32;20074;-65
2023/01/07 06:08:44;;;;;;;1.02;0.75;;;17.40;70.60;;;;;;4431813;32;20152;-66
2023/01/07 06:11:10;;;;;;;1.20;0.80;;;17.40;70.60;;;;;;4418239;32;20452;-66
2023/01/07 06:13:36;;;;;;;0.55;0.43;;;17.40;70.60;;;;;;4431815;32;20067;-66
2023/01/07 06:16:06;;;;;;;1.77;0.80;;;17.40;70.60;;;;;;4432158;32;20079;-66
2023/01/07 06:18:51;;;;;;;1.00;0.63;;;17.40;70.60;;;;;;4431557;32;20122;-66
2023/01/07 06:21:37;;;;;;;1.75;0.70;;;17.40;70.60;;;;;;4420347;32;20499;-67
2023/01/07 06:24:24;;;;;;;0.95;0.73;;;17.40;70.60;;;;;;4420307;32;20506;-66
2023/01/07 06:27:10;;;;;;;1.48;0.75;;;17.40;70.60;;;;;;4419900;32;20171;-66
2023/01/07 06:29:39;;;;;;;1.40;0.77;;;17.40;70.60;;;;;;4418388;32;20101;-66
2023/01/07 06:32:05;;;;;;;1.38;0.80;;;17.40;70.60;;;;;;4431755;32;20114;-66
2023/01/07 06:34:40;;;;;;;1.02;0.60;;;17.40;70.60;;;;;;4431778;32;20500;-66
2023/01/07 06:37:06;;;;;;;0.90;0.63;;;17.40;70.60;;;;;;4431737;32;20125;-66
2023/01/07 06:39:31;;;;;;;0.93;0.70;;;17.40;70.60;;;;;;4431527;32;20284;-66
2023/01/07 06:41:57;;;;;;;1.10;0.70;;;17.40;70.50;;;;;;4431631;32;20519;-66
2023/01/07 06:44:24;;;;;;;0.70;0.60;;;17.40;70.60;;;;;;4431279;32;20082;-66
2023/01/07 06:46:50;;;;;;;0.90;0.57;;;17.40;70.60;;;;;;4431545;32;20409;-66
2023/01/07 06:49:16;;;;;;;1.27;0.80;;;17.40;70.60;;;;;;4431414;32;20200;-66
2023/01/07 06:51:42;;;;;;;1.05;0.60;;;17.40;70.50;;;;;;4431428;32;20204;-66
2023/01/07 06:54:09;;;;;;;0.90;0.52;;;17.40;70.60;;;;;;4431408;32;20075;-66
2023/01/07 06:56:34;;;;;;;1.60;0.70;;;17.40;70.60;;;;;;4430070;32;20098;-66
2023/01/07 06:59:00;;;;;;;1.10;0.65;;;17.30;70.50;;;;;;4431129;32;20113;-66
2023/01/07 07:01:26;;;;;;;1.23;0.70;;;17.40;70.50;;;;;;4431048;32;20436;-67
2023/01/07 07:03:52;;;;;;;1.08;0.70;;;17.30;70.50;;;;;;4431120;32;20405;-66
2023/01/07 07:06:18;;;;;;;1.88;0.65;;;17.40;70.60;;;;;;4417538;32;20067;-66
2023/01/07 07:08:44;;;;;;;0.80;0.55;;;17.30;70.50;;;;;;4430958;32;20078;-66
2023/01/07 07:11:10;;;;;;;1.15;0.63;;;17.30;70.50;;;;;;4431097;32;20382;-66
2023/01/07 07:13:36;;;;;;;1.40;0.70;;;17.30;70.50;;;;;;4430934;32;20158;-66
2023/01/07 07:16:02;;;;;;;1.90;0.70;;;17.30;70.50;;;;;;4431067;32;20296;-66
2023/01/07 07:18:29;;;;;;;1.52;0.77;;;17.30;70.50;;;;;;4430956;32;20228;-66
2023/01/07 07:20:57;;;;;;;1.25;0.70;;;17.30;70.50;;;;;;4430904;32;20516;-66
2023/01/07 07:23:23;;;;;;;1.00;0.70;;;17.30;70.60;;;;;;4431021;32;20382;-66
2023/01/07 07:25:50;;;;;;;0.45;0.43;;;17.30;70.50;;;;;;4416858;32;20510;-66
2023/01/07 07:28:16;;;;;;;1.20;0.80;;;17.30;70.50;;;;;;4430727;32;20540;-66
2023/01/07 07:30:42;;;;;;;1.02;0.70;;;17.30;70.50;;;;;;4430731;32;20085;-66
2023/01/07 07:33:08;;;;;;;0.88;0.60;;;17.30;70.50;;;;;;4421070;32;20147;-66
2023/01/07 07:35:34;;;;;;;0.63;0.57;;;17.30;70.50;;;;;;4415801;32;20066;-66
2023/01/07 07:38:00;;;;;;;1.35;0.55;;;17.30;70.50;;;;;;4428387;32;20172;-67
2023/01/07 07:40:26;;;;;;;0.88;0.50;;;17.30;70.50;;;;;;4415467;32;20135;-67
2023/01/07 07:42:52;;;;;;;1.65;0.60;;;17.30;70.50;;;;;;4415355;32;20089;-67
2023/01/07 07:45:18;;;;;;;1.25;0.60;;;17.30;70.50;;;;;;4416813;32;20075;-67
2023/01/07 07:47:45;;;;;;;1.00;0.70;;;17.30;70.40;;;;;;4420626;32;20126;-67
2023/01/07 07:50:11;;;;;;;1.88;0.50;;;17.30;70.30;;;;;;4416164;32;20224;-67
2023/01/07 07:52:37;;;;;;;3.08;0.80;;;17.30;70.40;;;;;;4416386;32;20145;-69
2023/01/07 07:55:03;;;;;;;1.05;0.80;;;17.30;70.50;;;;;;4416576;32;20219;-67
2023/01/07 07:57:29;;;;;;;3.22;1.00;;;17.30;71.50;;;;;;4416851;32;20085;-68
2023/01/07 07:59:56;;;;;;;2.20;0.63;;;17.40;70.60;;;;;;4419961;32;20137;-67
2023/01/07 08:02:21;;;;;;;1.42;0.60;;;17.50;70.50;;;;;;4416337;32;20181;-67
2023/01/07 08:04:47;;;;;;;3.33;0.90;;;17.60;70.30;;;;;;4429344;32;20070;-68
2023/01/07 08:07:13;;;;;;;4.55;0.80;;;17.70;70.00;;;;;;4429030;32;20066;-67
2023/01/07 08:09:39;;;;;;;1.70;0.60;;;17.90;69.60;;;;;;4430344;32;20216;-67
2023/01/07 08:12:05;;;;;;;1.13;0.60;;;18.00;69.10;;;;;;4430046;32;20089;-68
2023/01/07 08:14:31;;;;;;;1.17;0.57;;;18.20;69.50;;;;;;4430012;32;20066;-67
2023/01/07 08:17:00;;;;;;;1.10;0.60;;;18.40;68.30;;;;;;4429917;32;20081;-67
2023/01/07 08:19:26;;;;;;;3.30;0.70;;;18.50;67.80;;;;;;4430100;32;20459;-69
2023/01/07 08:21:52;;;;;;;2.47;0.40;;;18.70;67.50;;;;;;4429949;32;20090;-67
2023/01/07 08:24:18;;;;;;;1.08;0.50;;;18.80;67.10;;;;;;4429745;32;20193;-67
2023/01/07 08:26:44;;;;;;;1.95;0.68;;;19.00;66.70;;;;;;4430200;32;20087;-67
2023/01/07 08:29:10;;;;;;;1.70;0.60;;;19.10;66.40;;;;;;4429516;32;20067;-67
2023/01/07 08:31:36;;;;;;;1.42;0.40;;;19.20;66.00;;;;;;4429745;32;20177;-67
2023/01/07 08:34:02;;;;;;;0.90;0.45;;;19.30;65.80;;;;;;4429823;32;20074;-67
2023/01/07 08:36:32;;;;;;;1.58;0.60;;;19.30;65.60;;;;;;4429795;32;20488;-67
2023/01/07 08:38:58;;;;;;;2.80;0.68;;;19.40;65.60;;;;;;4429631;32;20120;-67
2023/01/07 08:41:24;;;;;;;2.47;0.80;;;19.40;65.60;;;;;;4429623;32;20492;-67
2023/01/07 08:43:52;;;;;;;2.13;0.60;;;19.40;65.60;;;;;;4429727;32;20156;-67
2023/01/07 08:46:18;;;;;;;1.80;0.75;;;19.50;65.60;;;;;;4429431;32;20174;-67
2023/01/07 08:48:44;;;;;;;5.57;0.60;;;19.40;65.50;;;;;;4424717;32;20107;-67
2023/01/07 08:51:10;;;;;;;0.70;0.50;;;19.50;65.60;;;;;;4417100;32;20125;-68
2023/01/07 08:53:35;;;;;;;1.05;0.60;;;19.40;65.70;;;;;;4421167;32;20106;-67
2023/01/07 08:56:01;;;;;;;2.90;0.60;;;19.50;65.90;;;;;;4429406;32;20484;-66
2023/01/07 08:58:28;;;;;;;1.45;0.60;;;19.50;66.00;;;;;;4429119;32;20149;-67
2023/01/07 09:00:58;;;;;;;1.58;0.52;;;19.50;66.00;;;;;;4429131;32;20138;-67
2023/01/07 09:03:24;;;;;;;2.90;0.70;;;19.50;66.10;;;;;;4429551;32;20074;-68
2023/01/07 09:05:50;;;;;;;2.03;0.40;;;19.50;66.20;;;;;;4429615;32;20074;-67
2023/01/07 09:08:16;;;;;;;1.60;0.60;;;19.50;66.30;;;;;;4429653;32;20451;-67
2023/01/07 09:10:42;;;;;;;1.25;0.60;;;19.50;66.30;;;;;;4429315;32;20067;-67
2023/01/07 09:13:08;;;;;;;5.40;1.10;;;19.50;66.40;;;;;;4429132;32;20518;-67
2023/01/07 09:15:34;;;;;;;1.65;0.50;;;19.50;66.50;;;;;;4429221;32;20066;-66
2023/01/07 09:18:05;;;;;;;2.83;0.50;;;19.50;66.50;;;;;;4428800;32;20086;-67
2023/01/07 09:20:33;;;;;;;1.65;0.63;;;19.50;66.60;;;;;;4429112;32;20221;-67
2023/01/07 09:23:19;;;;;;;1.45;0.65;;;19.50;66.60;;;;;;4422144;32;20070;-66
2023/01/07 09:26:04;;;;;;;2.80;0.90;;;19.50;66.60;;;;;;4413211;32;20097;-70
2023/01/07 09:28:31;;;;;;;1.90;0.50;;;19.50;66.70;;;;;;4429307;32;20097;-67
2023/01/07 09:30:58;;;;;;;4.05;0.60;;;19.50;66.80;;;;;;4429026;32;20094;-67
2023/01/07 09:33:24;;;;;;;1.65;0.77;;;19.50;66.80;;;;;;4418795;32;20425;-67
2023/01/07 09:35:50;;;;;;;2.35;0.68;;;19.50;66.80;;;;;;4415215;32;20130;-67
2023/01/07 09:38:16;;;;;;;1.00;0.57;;;19.50;66.80;;;;;;4413883;32;20211;-66
2023/01/07 09:40:44;;;;;;;4.25;0.60;;;19.50;67.60;;;;;;4425003;32;20074;-67
2023/01/07 09:43:29;;;;;;;1.05;0.60;;;19.50;66.80;;;;;;4429235;32;20094;-67
2023/01/07 09:45:59;;;;;;;1.55;0.65;;;19.50;66.80;;;;;;4425619;32;20138;-67
2023/01/07 09:48:36;;;;;;;4.30;0.70;;;19.50;66.80;;;;;;4429007;32;20067;-67
2023/01/07 09:51:20;;;;;;;1.08;0.55;;;19.50;66.80;;;;;;4425948;32;20531;-67
2023/01/07 09:53:53;;;;;;;1.48;0.60;;;19.50;66.80;;;;;;4418717;32;20114;-66
2023/01/07 09:56:30;;;;;;;1.65;0.70;;;19.50;66.80;;;;;;4429183;32;20590;-67
2023/01/07 09:58:58;;;;;;;0.57;0.45;;;19.50;66.80;;;;;;4418665;32;20094;-67
2023/01/07 10:01:44;;;;;;;1.20;0.68;;;19.50;66.80;;;;;;4428987;32;20101;-67
2023/01/07 10:04:10;;;;;;;0.98;0.50;;;19.50;66.80;;;;;;4419710;32;20104;-67
2023/01/07 10:06:42;;;;;;;1.48;0.40;;;19.50;66.70;;;;;;4428902;32;20080;-67
2023/01/07 10:09:35;;;;;;;1.48;0.55;;;19.50;66.70;;;;;;4414647;32;20078;-68
2023/01/07 10:12:21;;;;;;;1.08;0.60;;;19.50;66.70;;;;;;4415147;32;20161;-66
2023/01/07 10:14:55;;;;;;;3.70;0.60;;;19.50;66.70;;;;;;4428775;32;20122;-66
2023/01/07 10:17:46;;;;;;;1.38;0.40;;;19.50;66.60;;;;;;4428697;32;20140;-65
2023/01/07 10:20:31;;;;;;;1.40;0.60;;;19.50;66.70;;;;;;4428763;32;20821;-65
2023/01/07 10:23:06;;;;;;;1.60;0.60;;;19.50;66.70;;;;;;4428862;32;20591;-65
2023/01/07 10:25:39;;;;;;;2.42;0.55;;;19.50;66.80;;;;;;4428933;32;20085;-65
2023/01/07 10:28:12;;;;;;;1.50;0.47;;;19.40;66.70;;;;;;4428670;32;20090;-66
2023/01/07 10:30:43;;;;;;;1.35;0.60;;;19.40;66.80;;;;;;4430347;32;20078;-66
2023/01/07 10:33:24;;;;;;;3.65;0.70;;;19.40;66.90;;;;;;4431826;32;20504;-65
2023/01/07 10:36:04;;;;;;;2.45;0.50;;;19.40;66.90;;;;;;4431318;32;20071;-66
2023/01/07 10:38:36;;;;;;;1.70;0.70;;;19.40;67.00;;;;;;4431638;32;20085;-65
2023/01/07 10:41:10;;;;;;;0.95;0.40;;;19.30;67.00;;;;;;4429473;32;20070;-66
2023/01/07 10:43:44;;;;;;;0.73;0.50;;;19.30;67.10;;;;;;4431587;32;20516;-65
2023/01/07 10:46:35;;;;;;;0.93;0.60;;;19.30;67.20;;;;;;4428796;32;20193;-65
2023/01/07 10:49:44;;;;;;;2.15;0.80;;;19.30;67.30;;;;;;4431425;32;20098;-65
2023/01/07 10:52:10;;;;;;;2.00;0.60;;;19.20;67.20;;;;;;4430772;32;20155;-65
2023/01/07 10:54:51;;;;;;;1.27;0.65;;;19.20;67.30;;;;;;4431470;32;20476;-65
2023/01/07 10:57:23;;;;;;;2.47;0.70;;;19.20;67.40;;;;;;4431657;32;20128;-65
2023/01/07 10:59:55;;;;;;;1.38;0.40;;;19.20;67.50;;;;;;4431073;32;20135;-65
2023/01/07 11:02:26;;;;;;;1.25;0.50;;;19.20;67.40;;;;;;4431569;32;20189;-65
2023/01/07 11:04:53;;;;;;;1.45;0.50;;;19.20;67.50;;;;;;4431123;32;20074;-66
2023/01/07 11:07:42;;;;;;;1.77;0.75;;;19.20;67.50;;;;;;4431020;32;20094;-65
2023/01/07 11:10:23;;;;;;;1.27;0.43;;;19.20;67.50;;;;;;4430990;32;20119;-65
2023/01/07 11:12:55;;;;;;;1.55;0.50;;;19.20;67.50;;;;;;4431313;32;20102;-65
2023/01/07 11:15:36;;;;;;;1.67;0.50;;;19.20;67.50;;;;;;4431115;32;20082;-65
2023/01/07 11:18:25;;;;;;;0.85;0.70;;;19.20;67.50;;;;;;4431164;32;20078;-65
2023/01/07 11:20:53;;;;;;;0.80;0.55;;;19.20;67.60;;;;;;4430907;32;20067;-65
2023/01/07 11:23:29;;;;;;;1.00;0.50;;;19.20;67.60;;;;;;4431059;32;20212;-65
2023/01/07 11:26:26;;;;;;;1.27;0.43;;;19.20;67.60;;;;;;4441417;32;20090;-66
2023/01/07 11:28:59;;;;;;;0.93;0.50;;;19.20;67.60;;;;;;4430811;32;20101;-66
2023/01/07 11:31:51;;;;;;;1.45;0.60;;;19.20;67.60;;;;;;4431354;32;20548;-65
2023/01/07 11:34:33;;;;;;;0.80;0.50;;;19.20;67.60;;;;;;4430727;32;20118;-65
2023/01/07 11:37:03;;;;;;;1.60;0.40;;;19.20;67.60;;;;;;4430870;32;20078;-65
2023/01/07 11:39:31;;;;;;;3.45;0.52;;;19.20;67.50;;;;;;4430578;32;20082;-65
2023/01/07 11:41:58;;;;;;;0.63;0.30;;;19.20;67.60;;;;;;4430116;32;20151;-65
2023/01/07 11:44:25;;;;;;;1.77;0.60;;;19.20;67.60;;;;;;4430516;32;20074;-65
2023/01/07 11:46:52;;;;;;;1.15;0.30;;;19.20;67.50;;;;;;4416714;32;20087;-66
2023/01/07 11:49:29;;;;;;;0.65;0.40;;;19.20;67.50;;;;;;4430531;32;20078;-65
2023/01/07 11:51:56;;;;;;;0.70;0.40;;;19.20;67.40;;;;;;4430562;32;20140;-66
2023/01/07 11:54:25;;;;;;;2.25;0.52;;;19.20;67.50;;;;;;4430606;32;20097;-65
2023/01/07 11:56:52;;;;;;;0.60;0.38;;;19.20;67.40;;;;;;4430326;32;20093;-65
2023/01/07 11:59:18;;;;;;;1.00;0.50;;;19.20;67.50;;;;;;4430113;32;20111;-66
2023/01/07 12:01:50;;;;;;;0.63;0.30;;;19.20;67.40;;;;;;4416429;32;20069;-66
2023/01/07 12:04:30;;;;;;;0.73;0.40;;;19.20;67.50;;;;;;4430758;32;20184;-65
2023/01/07 12:07:01;;;;;;;1.38;0.80;;;19.20;67.50;;;;;;4441102;32;20093;-66
2023/01/07 12:09:35;;;;;;;1.38;0.50;;;19.20;67.50;;;;;;4430825;32;20232;-67
2023/01/07 12:12:38;;;;;;;;;;;19.20;67.50;;;;;;4433560;32;20169;-66
2023/01/07 12:15:14;;;;;;;0.68;0.30;;;19.20;67.50;;;;;;4430064;32;19982;-66
2023/01/07 12:17:44;;;;;;;0.75;0.40;;;19.20;67.30;;;;;;4429847;32;20081;-66
2023/01/07 12:20:16;;;;;;;1.08;0.75;;;19.30;67.30;;;;;;4429587;32;20063;-66
2023/01/07 12:23:19;;;;;;;1.48;0.38;;;19.30;67.00;;;;;;4430010;32;20090;-66
2023/01/07 12:26:24;;;;;;;1.67;0.50;;;19.40;66.90;;;;;;4428861;32;20097;-66
2023/01/07 12:29:28;;;;;;;2.25;0.43;;;19.50;66.70;;;;;;4424727;32;20486;-65
2023/01/07 12:32:02;;;;;;;1.42;0.30;;;19.60;66.50;;;;;;4417447;32;20081;-66
2023/01/07 12:34:37;;;;;;;1.95;0.40;;;19.70;66.20;;;;;;4418257;32;20086;-66
2023/01/07 12:37:21;;;;;;;3.22;0.40;;;19.80;66.10;;;;;;4418767;32;20075;-66
2023/01/07 12:39:52;;;;;;;;;;;19.90;65.80;;;;;;4417221;32;20118;-66
2023/01/07 12:42:32;;;;;;;0.40;0.30;;;20.00;65.80;;;;;;4415688;32;20074;-66
2023/01/07 12:45:02;;;;;;;4.22;0.50;;;20.10;65.70;;;;;;4415876;32;20141;-66
2023/01/07 12:47:33;;;;;;;2.30;0.47;;;20.10;65.60;;;;;;4426988;32;20081;-66
2023/01/07 12:50:41;;;;;;;2.45;0.70;;;20.10;65.60;;;;;;4429214;32;20070;-66
2023/01/07 12:53:34;;;;;;;0.60;0.32;;;20.10;65.60;;;;;;4428840;32;20169;-66
2023/01/07 12:56:11;;;;;;;0.65;0.45;;;20.10;65.50;;;;;;4427653;32;20168;-66
2023/01/07 12:58:50;;;;;;;1.73;0.40;;;20.20;65.50;;;;;;4428733;32;20142;-65
2023/01/07 13:01:28;;;;;;;0.70;0.35;;;20.20;65.50;;;;;;4428784;32;20180;-65
2023/01/07 13:03:59;;;;;;;1.20;0.45;;;20.20;65.50;;;;;;4421399;32;20284;-66
2023/01/07 13:06:52;;;;;;;1.25;0.30;;;20.20;65.50;;;;;;4419950;32;20220;-65
2023/01/07 13:09:17;;;;;;;0.93;0.22;;;20.20;65.50;;;;;;4428490;32;20208;-66
2023/01/07 13:14:55;;;;;;;0.47;0.20;;;20.20;65.50;;;;;;4401683;32;20141;-67
2023/01/07 13:17:29;;;;;;;0.60;0.22;;;20.20;65.50;;;;;;4423938;32;20093;-66
2023/01/07 13:19:56;;;;;;;0.65;0.30;;;20.30;65.60;;;;;;4424472;32;20104;-66